- বাংলা English

 * * Phone: +880 29135742, 9123838, 9141437 | FAX: +880 2 9119230, 9103908, 58152019*   

TAF


TAF VGHS 200500Z 2006/2112  12008KT 3500 HZ SCT012 BKN100
TEMPO 2008/2015 28025G35KT 1500 TSRA/RA FEW025CB OVC090
BECMG 2015/2017 15007KT 3500 HZ SCT015 BKN100
TEMPO 2018/2103 29025G35KT 2000TSRA/RA SCT007 FEW025CB OVC090
BECMG 2103/2105 09008KT 3500 HZ SCT012 BKN100
TEMPO 2106/2112 28025G35KT 2000TSRA/RA SCT007 FEW025CB OVC090=

TAF VGEG 200500Z 2006/2112 26012KT 5000 HZ SCT016 SCT100
  TEMPO 20222104 28020G30KT 1500 RA/TSRA SCT007 FEW025CB BKN090
  BECMG 2105/2107 24010KT 5000 HZ SCT016 SCT10=

 

 


TAF VGSY 200400Z 2006/2112 13005KT 4500HZ SCT015 SCT120
BECMG 2018/2020 06004KT 3500HZ SCT015 SCT120
 BECMG 2023/2101 04004KT 3000HZ SCT015 BKN100
 BECMG 2103/2105 09005K 3500HZ SCT015
 TEMPO 2010/2106 27025G35KT 2000 TSRA/RA SCT007 FEW025CB BKN090=